createdAt,value
2023-05-13T00:01:55.226Z,67.54
2023-05-13T00:04:27.426Z,67.87
2023-05-13T00:07:01.667Z,67.79
2023-05-13T00:09:34.518Z,68.50
2023-05-13T00:12:08.233Z,69.07
2023-05-13T00:14:41.126Z,69.61
2023-05-13T00:17:13.428Z,70.11
2023-05-13T00:19:45.800Z,70.23
2023-05-13T00:22:20.747Z,70.30
2023-05-13T00:24:53.031Z,70.51
2023-05-13T00:27:27.480Z,70.66
2023-05-13T00:30:01.114Z,70.42
2023-05-13T00:32:33.424Z,69.97
2023-05-13T00:35:13.204Z,69.97
2023-05-13T00:37:45.672Z,69.94
2023-05-13T00:40:23.435Z,70.74
2023-05-13T00:42:57.177Z,70.48
2023-05-13T00:45:29.922Z,70.86
2023-05-13T00:48:03.845Z,71.32
2023-05-13T00:50:38.528Z,71.22
2023-05-13T00:53:11.910Z,71.19
2023-05-13T00:55:46.332Z,71.87
2023-05-13T00:58:18.839Z,72.40
2023-05-13T01:00:58.859Z,71.73
2023-05-13T01:03:41.540Z,70.86
2023-05-13T01:06:18.638Z,70.86
2023-05-13T01:08:58.505Z,70.95
2023-05-13T01:11:36.660Z,71.95
2023-05-13T01:14:14.575Z,72.73
2023-05-13T01:16:50.944Z,72.73
2023-05-13T01:19:41.513Z,72.32
2023-05-13T01:22:14.562Z,72.43
2023-05-13T01:24:47.189Z,72.86
2023-05-13T01:27:20.016Z,72.98
2023-05-13T01:29:54.277Z,73.70
2023-05-13T01:32:29.798Z,73.11
2023-05-13T01:35:02.914Z,72.78
2023-05-13T01:37:39.144Z,72.40
2023-05-13T01:40:28.107Z,73.14
2023-05-13T01:43:07.762Z,73.65
2023-05-13T01:45:45.038Z,73.37
2023-05-13T01:48:18.982Z,74.36
2023-05-13T01:50:53.608Z,73.19
2023-05-13T01:53:26.063Z,72.46
2023-05-13T01:55:58.609Z,73.28
2023-05-13T01:58:31.628Z,74.16
2023-05-13T02:01:04.282Z,73.48
2023-05-13T02:03:38.203Z,72.79
2023-05-13T02:06:11.107Z,73.12
2023-05-13T02:08:47.315Z,73.34
2023-05-13T02:11:19.588Z,74.06
2023-05-13T02:13:52.162Z,74.03
2023-05-13T02:16:25.149Z,73.98
2023-05-13T02:18:57.852Z,74.66
2023-05-13T02:21:33.583Z,74.75
2023-05-13T02:24:06.715Z,74.55
2023-05-13T02:26:41.695Z,75.18
2023-05-13T02:29:15.210Z,75.16
2023-05-13T02:31:47.592Z,75.04
2023-05-13T02:34:20.514Z,74.97
2023-05-13T02:36:54.084Z,75.12
2023-05-13T02:39:26.960Z,75.03
2023-05-13T02:42:00.572Z,75.15
2023-05-13T02:44:34.042Z,74.89
2023-05-13T02:47:09.618Z,75.01
2023-05-13T02:49:45.442Z,75.33
2023-05-13T02:52:17.778Z,75.59
2023-05-13T02:54:50.186Z,75.68
2023-05-13T02:57:25.756Z,75.76
2023-05-13T02:59:58.159Z,75.89
2023-05-13T03:02:30.611Z,75.92
2023-05-13T03:05:02.965Z,75.88
2023-05-13T03:07:38.517Z,76.29
2023-05-13T03:10:15.150Z,76.25
2023-05-13T03:12:47.367Z,76.12
2023-05-13T03:15:22.981Z,76.06
2023-05-13T03:17:56.589Z,76.07
2023-05-13T03:20:29.693Z,75.98
2023-05-13T03:23:04.561Z,76.05
2023-05-13T03:25:37.888Z,76.08
2023-05-13T03:28:11.739Z,75.66
2023-05-13T03:30:49.847Z,75.74
2023-05-13T03:33:24.491Z,76.20
2023-05-13T03:35:56.742Z,76.51
2023-05-13T03:38:32.279Z,76.88
2023-05-13T03:41:05.975Z,76.94
2023-05-13T03:43:39.442Z,76.68
2023-05-13T03:46:33.426Z,76.73
2023-05-13T03:49:08.466Z,75.96
2023-05-13T03:51:43.297Z,75.70
2023-05-13T03:54:16.327Z,76.36
2023-05-13T03:56:48.755Z,76.85
2023-05-13T03:59:21.145Z,75.98
2023-05-13T04:01:53.411Z,75.38
2023-05-13T04:04:25.865Z,76.08
2023-05-13T04:06:58.596Z,76.58
2023-05-13T04:09:33.065Z,75.62
2023-05-13T04:12:05.589Z,73.56
2023-05-13T04:14:40.222Z,70.40
2023-05-13T04:17:12.665Z,67.26
2023-05-13T04:19:44.883Z,63.18
2023-05-13T04:22:20.050Z,59.75
2023-05-13T04:24:56.849Z,56.51
2023-05-13T04:27:29.691Z,55.47
2023-05-13T04:30:10.873Z,56.71
2023-05-13T04:32:47.120Z,57.81
2023-05-13T04:35:20.423Z,58.68
2023-05-13T04:37:58.626Z,59.92
2023-05-13T04:40:32.416Z,60.82
2023-05-13T04:43:10.097Z,62.12
2023-05-13T04:45:50.646Z,63.29
2023-05-13T04:48:28.099Z,64.52
2023-05-13T04:51:03.002Z,64.90
2023-05-13T04:53:41.412Z,65.49
2023-05-13T04:56:14.597Z,66.80
2023-05-13T04:58:46.880Z,66.78
2023-05-13T05:01:20.137Z,67.77
2023-05-13T05:03:53.325Z,68.02
2023-05-13T05:06:25.725Z,68.18
2023-05-13T05:08:58.355Z,67.61
2023-05-13T05:11:33.093Z,68.06
2023-05-13T05:14:11.247Z,68.29
2023-05-13T05:16:43.558Z,68.65
2023-05-13T05:19:16.838Z,68.13
2023-05-13T05:21:49.091Z,63.95
2023-05-13T05:24:21.623Z,58.56
2023-05-13T05:26:53.939Z,54.45
2023-05-13T05:29:28.402Z,47.26
2023-05-13T05:32:01.163Z,47.71
2023-05-13T05:34:33.946Z,48.09
2023-05-13T05:37:06.600Z,48.35
2023-05-13T05:39:45.332Z,49.15
2023-05-13T05:42:18.107Z,51.61
2023-05-13T05:44:50.495Z,54.10
2023-05-13T05:47:25.841Z,53.64
2023-05-13T05:49:58.598Z,53.95
2023-05-13T05:52:31.077Z,55.24
2023-05-13T05:55:04.286Z,56.44
2023-05-13T05:57:38.123Z,56.84
2023-05-13T06:00:16.553Z,53.30
2023-05-13T06:02:49.236Z,53.33
2023-05-13T06:05:22.420Z,51.15
2023-05-13T06:07:55.027Z,45.15
2023-05-13T06:10:28.161Z,44.75
2023-05-13T06:13:00.784Z,43.30
2023-05-13T06:15:34.970Z,41.79
2023-05-13T06:18:10.626Z,41.40
2023-05-13T06:20:42.989Z,40.09
2023-05-13T06:23:16.072Z,37.76
2023-05-13T06:25:49.041Z,37.87
2023-05-13T06:28:21.792Z,38.79
2023-05-13T06:30:56.802Z,38.45
2023-05-13T06:33:30.064Z,38.78
2023-05-13T06:36:02.837Z,39.28
2023-05-13T06:38:35.500Z,43.34
2023-05-13T06:41:14.454Z,40.43
2023-05-13T06:43:49.104Z,41.50
2023-05-13T06:46:27.091Z,41.40
2023-05-13T06:49:00.296Z,43.28
2023-05-13T06:51:34.164Z,41.85
2023-05-13T06:54:06.746Z,43.96
2023-05-13T06:56:41.432Z,39.94
2023-05-13T06:59:13.833Z,39.41
2023-05-13T07:01:46.267Z,39.57
2023-05-13T07:04:18.622Z,38.55
2023-05-13T07:06:51.882Z,39.86
2023-05-13T07:09:24.184Z,37.39
2023-05-13T07:11:56.932Z,38.22
2023-05-13T07:14:29.172Z,35.84
2023-05-13T07:17:04.852Z,34.75
2023-05-13T07:19:39.444Z,36.40
2023-05-13T07:22:11.856Z,35.73
2023-05-13T07:24:44.043Z,34.62
2023-05-13T07:27:17.010Z,33.97
2023-05-13T07:29:49.233Z,33.25
2023-05-13T07:32:21.886Z,34.29
2023-05-13T07:34:54.324Z,33.88
2023-05-13T07:37:29.793Z,34.73
2023-05-13T07:40:05.886Z,33.48
2023-05-13T07:42:40.617Z,36.74
2023-05-13T07:45:14.778Z,33.38
2023-05-13T07:47:47.026Z,34.65
2023-05-13T07:50:19.483Z,33.46
2023-05-13T07:52:52.082Z,32.86
2023-05-13T07:55:26.677Z,33.81
2023-05-13T07:57:59.107Z,33.02
2023-05-13T08:00:32.208Z,32.56
2023-05-13T08:03:06.346Z,33.35
2023-05-13T08:05:41.557Z,33.44
2023-05-13T08:08:14.197Z,34.91
2023-05-13T08:10:46.520Z,34.95
2023-05-13T08:13:18.868Z,32.42
2023-05-13T08:15:52.015Z,32.79
2023-05-13T08:18:24.311Z,31.69
2023-05-13T08:20:56.765Z,33.40
2023-05-13T08:23:43.577Z,32.44
2023-05-13T08:26:17.016Z,33.47
2023-05-13T08:28:52.194Z,31.66
2023-05-13T08:31:27.003Z,32.57
2023-05-13T08:33:59.486Z,32.70
2023-05-13T08:36:31.704Z,34.74
2023-05-13T08:39:03.873Z,32.54
2023-05-13T08:41:38.074Z,32.25
2023-05-13T08:44:13.450Z,31.89
2023-05-13T08:46:52.270Z,32.78
2023-05-13T08:49:24.771Z,35.16
2023-05-13T08:51:57.091Z,31.70
2023-05-13T08:54:30.795Z,31.72
2023-05-13T08:57:03.690Z,30.40
2023-05-13T08:59:36.920Z,29.75
2023-05-13T09:02:10.799Z,29.84
2023-05-13T09:04:44.561Z,29.09
2023-05-13T09:07:17.298Z,28.02
2023-05-13T09:09:50.951Z,28.34
2023-05-13T09:12:48.529Z,28.72
2023-05-13T09:15:23.001Z,27.35
2023-05-13T09:18:00.353Z,27.85
2023-05-13T09:20:33.451Z,28.00
2023-05-13T09:23:07.765Z,26.42
2023-05-13T09:25:41.651Z,25.26
2023-05-13T09:28:16.978Z,25.98
2023-05-13T09:30:57.814Z,26.27
2023-05-13T09:33:33.053Z,26.29
2023-05-13T09:36:08.464Z,25.63
2023-05-13T09:38:41.534Z,25.32
2023-05-13T09:41:14.192Z,24.43
2023-05-13T09:43:46.430Z,24.97
2023-05-13T09:46:18.803Z,24.60
2023-05-13T09:48:57.219Z,25.19
2023-05-13T09:51:31.382Z,24.12
2023-05-13T09:54:08.813Z,24.09
2023-05-13T09:56:43.966Z,23.35
2023-05-13T09:59:18.296Z,24.40
2023-05-13T10:01:51.219Z,25.88
2023-05-13T10:04:25.017Z,25.42
2023-05-13T10:06:59.151Z,24.40
2023-05-13T10:09:36.050Z,25.62
2023-05-13T10:12:16.072Z,24.03
2023-05-13T10:14:49.261Z,23.97
2023-05-13T10:17:23.653Z,24.32
2023-05-13T10:19:57.463Z,24.56
2023-05-13T10:22:31.824Z,24.38
2023-05-13T10:25:05.262Z,24.38
2023-05-13T10:27:42.091Z,23.89
2023-05-13T10:30:16.802Z,24.21
2023-05-13T10:32:49.243Z,24.44
2023-05-13T10:35:25.198Z,25.68
2023-05-13T10:38:12.426Z,24.01
2023-05-13T10:41:10.195Z,24.65
2023-05-13T10:43:44.626Z,26.12
2023-05-13T10:46:16.876Z,24.58
2023-05-13T10:48:58.632Z,24.28
2023-05-13T10:51:32.370Z,24.87
2023-05-13T10:54:18.893Z,24.79
2023-05-13T10:56:59.525Z,23.31
2023-05-13T10:59:31.881Z,23.29
2023-05-13T11:02:21.511Z,22.84
2023-05-13T11:05:06.324Z,22.70
2023-05-13T11:07:41.096Z,23.38
2023-05-13T11:13:24.938Z,21.91
2023-05-13T11:15:57.718Z,22.62
2023-05-13T11:18:34.764Z,22.61
2023-05-13T11:21:09.361Z,23.92
2023-05-13T11:23:58.036Z,23.58
2023-05-13T11:26:46.692Z,24.02
2023-05-13T11:29:30.893Z,25.18
2023-05-13T11:32:05.083Z,25.34
2023-05-13T11:34:38.556Z,25.69
2023-05-13T11:37:12.236Z,26.61
2023-05-13T11:39:44.830Z,26.56
2023-05-13T11:42:18.001Z,25.62
2023-05-13T11:44:50.537Z,26.08
2023-05-13T11:47:29.593Z,27.60
2023-05-13T11:50:01.993Z,30.42
2023-05-13T11:52:38.693Z,27.34
2023-05-13T11:55:11.577Z,26.69
2023-05-13T11:57:51.243Z,25.59
2023-05-13T12:00:27.814Z,25.98
2023-05-13T12:03:01.550Z,25.06
2023-05-13T12:05:34.639Z,25.67
2023-05-13T12:08:11.082Z,25.71
2023-05-13T12:10:47.318Z,25.75
2023-05-13T12:13:20.012Z,26.09
2023-05-13T12:15:53.634Z,25.38
2023-05-13T12:18:26.231Z,24.77
2023-05-13T12:20:58.538Z,24.61
2023-05-13T12:23:42.811Z,24.87
2023-05-13T12:26:15.186Z,24.68
2023-05-13T12:28:48.632Z,25.92
2023-05-13T12:31:19.461Z,26.19
2023-05-13T12:33:52.136Z,24.95
2023-05-13T12:36:32.515Z,25.35
2023-05-13T12:39:07.521Z,26.16
2023-05-13T12:41:42.514Z,25.11
2023-05-13T12:44:17.243Z,26.61
2023-05-13T12:46:55.903Z,25.98
2023-05-13T12:49:28.597Z,25.11
2023-05-13T12:52:06.069Z,25.65
2023-05-13T12:54:39.171Z,26.81
2023-05-13T12:57:16.805Z,26.10
2023-05-13T12:59:49.239Z,24.53
2023-05-13T13:02:21.613Z,25.13
2023-05-13T13:04:54.258Z,25.42
2023-05-13T13:07:26.635Z,25.82
2023-05-13T13:09:59.938Z,24.66
2023-05-13T13:12:30.929Z,26.05
2023-05-13T13:15:03.934Z,24.76
2023-05-13T13:17:43.835Z,26.84
2023-05-13T13:20:16.866Z,25.52
2023-05-13T13:22:49.353Z,25.59
2023-05-13T13:25:22.674Z,25.48
2023-05-13T13:27:53.397Z,26.26
2023-05-13T13:30:26.756Z,26.14
2023-05-13T13:32:59.168Z,25.25
2023-05-13T13:35:32.023Z,25.01
2023-05-13T13:38:04.592Z,24.85
2023-05-13T13:40:37.296Z,24.69
2023-05-13T13:43:10.313Z,24.80
2023-05-13T13:45:43.123Z,24.70
2023-05-13T13:48:15.986Z,25.29
2023-05-13T13:50:50.525Z,24.86
2023-05-13T13:53:24.263Z,24.44
2023-05-13T13:55:56.571Z,25.11
2023-05-13T13:58:28.997Z,25.14
2023-05-13T14:01:01.421Z,25.09
2023-05-13T14:03:34.011Z,24.82
2023-05-13T14:06:07.647Z,25.26
2023-05-13T14:08:40.192Z,25.09
2023-05-13T14:11:12.702Z,25.78
2023-05-13T14:13:45.236Z,25.11
2023-05-13T14:16:18.008Z,26.20
2023-05-13T14:18:50.487Z,25.78
2023-05-13T14:21:23.289Z,25.45
2023-05-13T14:23:55.711Z,25.81
2023-05-13T14:26:28.474Z,25.63
2023-05-13T14:29:01.329Z,25.55
2023-05-13T14:31:34.213Z,25.66
2023-05-13T14:34:10.690Z,25.49
2023-05-13T14:36:43.539Z,25.37
2023-05-13T14:39:15.996Z,25.63
2023-05-13T14:41:48.419Z,25.59
2023-05-13T14:44:20.835Z,25.88
2023-05-13T14:46:53.759Z,25.80
2023-05-13T14:49:27.470Z,25.40
2023-05-13T14:52:00.047Z,25.55
2023-05-13T14:54:37.198Z,25.74
2023-05-13T14:57:11.297Z,25.66
2023-05-13T14:59:44.072Z,25.84
2023-05-13T15:02:18.559Z,26.04
2023-05-13T15:04:53.632Z,26.07
2023-05-13T15:07:27.357Z,25.94
2023-05-13T15:10:04.479Z,25.82
2023-05-13T15:12:39.360Z,26.10
2023-05-13T15:15:15.055Z,26.83
2023-05-13T15:17:47.792Z,26.26
2023-05-13T15:20:20.911Z,26.63
2023-05-13T15:22:53.461Z,26.22
2023-05-13T15:25:26.396Z,26.79
2023-05-13T15:28:00.055Z,26.76
2023-05-13T15:30:37.214Z,27.15
2023-05-13T15:33:09.721Z,27.55
2023-05-13T15:35:44.079Z,27.32
2023-05-13T15:38:17.308Z,28.03
2023-05-13T15:40:49.342Z,27.43
2023-05-13T15:43:22.074Z,28.06
2023-05-13T15:45:57.978Z,27.90
2023-05-13T15:48:30.688Z,28.92
2023-05-13T15:51:04.615Z,30.03
2023-05-13T15:53:39.505Z,30.86
2023-05-13T15:56:20.372Z,30.48
2023-05-13T15:58:56.243Z,30.78
2023-05-13T16:01:29.432Z,30.82
2023-05-13T16:04:02.561Z,30.97
2023-05-13T16:06:35.547Z,31.13
2023-05-13T16:09:10.956Z,32.30
2023-05-13T16:11:44.036Z,34.30
2023-05-13T16:14:18.254Z,32.17
2023-05-13T16:16:52.347Z,34.47
2023-05-13T16:19:24.683Z,33.58
2023-05-13T16:21:57.171Z,33.49
2023-05-13T16:24:29.660Z,34.92
2023-05-13T16:27:02.083Z,34.13
2023-05-13T16:29:34.513Z,34.05
2023-05-13T16:32:09.115Z,33.77
2023-05-13T16:34:39.836Z,32.43
2023-05-13T16:37:12.349Z,33.83
2023-05-13T16:39:44.956Z,34.32
2023-05-13T16:42:17.609Z,33.69
2023-05-13T16:44:50.398Z,33.88
2023-05-13T16:47:23.209Z,33.22
2023-05-13T16:49:56.384Z,34.25
2023-05-13T16:52:31.565Z,34.89
2023-05-13T16:55:03.988Z,35.31
2023-05-13T16:57:40.224Z,34.94
2023-05-13T17:00:16.274Z,34.41
2023-05-13T17:02:48.986Z,34.41
2023-05-13T17:05:21.516Z,34.72
2023-05-13T17:07:54.130Z,34.50
2023-05-13T17:10:26.523Z,34.45
2023-05-13T17:12:59.196Z,35.29
2023-05-13T17:15:32.175Z,34.76
2023-05-13T17:18:04.915Z,34.85
2023-05-13T17:20:40.904Z,34.87
2023-05-13T17:23:13.589Z,34.76
2023-05-13T17:25:46.057Z,36.03
2023-05-13T17:28:18.631Z,36.81
2023-05-13T17:30:51.249Z,36.40
2023-05-13T17:33:24.514Z,36.90
2023-05-13T17:35:57.117Z,36.88
2023-05-13T17:38:29.669Z,36.94
2023-05-13T17:41:02.063Z,37.93
2023-05-13T17:43:34.443Z,39.88
2023-05-13T17:46:07.502Z,40.37
2023-05-13T17:48:40.148Z,42.38
2023-05-13T17:51:13.795Z,44.87
2023-05-13T17:53:46.411Z,48.78
2023-05-13T17:56:19.148Z,45.89
2023-05-13T17:58:51.549Z,47.23
2023-05-13T18:01:23.874Z,54.37
2023-05-13T18:03:56.579Z,52.03
2023-05-13T18:06:29.160Z,55.59
2023-05-13T18:09:02.739Z,54.74
2023-05-13T18:11:35.860Z,51.81
2023-05-13T18:14:09.102Z,52.06
2023-05-13T18:16:44.148Z,53.66
2023-05-13T18:19:16.796Z,55.15
2023-05-13T18:21:49.453Z,55.35
2023-05-13T18:24:22.279Z,56.24
2023-05-13T18:26:57.122Z,55.75
2023-05-13T18:29:29.573Z,55.94
2023-05-13T18:32:05.153Z,57.78
2023-05-13T18:34:39.946Z,58.59
2023-05-13T18:37:13.206Z,60.09
2023-05-13T18:39:46.193Z,59.64
2023-05-13T18:42:19.272Z,60.54
2023-05-13T18:44:52.455Z,61.12
2023-05-13T18:47:25.071Z,60.47
2023-05-13T18:49:57.514Z,60.55
2023-05-13T18:52:29.941Z,61.86
2023-05-13T18:55:03.799Z,62.21
2023-05-13T18:57:37.555Z,61.84
2023-05-13T19:00:12.317Z,62.10
2023-05-13T19:02:45.118Z,63.38
2023-05-13T19:05:20.317Z,63.65
2023-05-13T19:07:53.226Z,62.90
2023-05-13T19:10:25.885Z,63.70
2023-05-13T19:12:58.248Z,63.29
2023-05-13T19:15:30.801Z,63.85
2023-05-13T19:18:03.598Z,63.98
2023-05-13T19:20:35.964Z,63.89
2023-05-13T19:23:09.119Z,64.17
2023-05-13T19:25:42.715Z,64.42
2023-05-13T19:28:16.420Z,64.58
2023-05-13T19:30:49.226Z,64.35
2023-05-13T19:33:21.548Z,65.58
2023-05-13T19:35:53.828Z,65.47
2023-05-13T19:38:26.354Z,66.73
2023-05-13T19:41:01.989Z,66.27
2023-05-13T19:43:34.737Z,66.09
2023-05-13T19:46:07.783Z,67.58
2023-05-13T19:48:41.592Z,67.83
2023-05-13T19:51:14.017Z,67.54
2023-05-13T19:53:46.341Z,67.78
2023-05-13T19:56:19.057Z,68.50
2023-05-13T19:58:53.516Z,68.72
2023-05-13T20:01:27.211Z,69.70
2023-05-13T20:04:00.545Z,69.35
2023-05-13T20:06:33.827Z,68.96
2023-05-13T20:09:06.804Z,68.96
2023-05-13T20:11:41.391Z,69.21
2023-05-13T20:14:13.948Z,69.59
2023-05-13T20:16:46.313Z,69.63
2023-05-13T20:19:18.796Z,69.47
2023-05-13T20:21:53.578Z,69.75
2023-05-13T20:24:25.815Z,69.92
2023-05-13T20:27:00.433Z,70.03
2023-05-13T20:29:38.887Z,70.21
2023-05-13T20:32:11.765Z,70.54
2023-05-13T20:34:44.230Z,70.43
2023-05-13T20:37:17.113Z,70.32
2023-05-13T20:39:49.678Z,70.65
2023-05-13T20:42:22.919Z,70.37
2023-05-13T20:44:55.359Z,70.13
2023-05-13T20:47:27.868Z,70.63
2023-05-13T20:50:00.658Z,71.42
2023-05-13T20:52:35.917Z,71.56
2023-05-13T20:55:10.902Z,71.49
2023-05-13T20:57:45.516Z,71.33
2023-05-13T21:00:18.937Z,71.41
2023-05-13T21:02:52.124Z,71.34
2023-05-13T21:05:24.872Z,71.66
2023-05-13T21:07:57.378Z,71.83
2023-05-13T21:10:29.978Z,71.42
2023-05-13T21:13:02.762Z,71.83
2023-05-13T21:15:35.929Z,71.89
2023-05-13T21:18:09.172Z,71.75
2023-05-13T21:20:46.185Z,71.65
2023-05-13T21:23:20.454Z,71.99
2023-05-13T21:25:52.919Z,72.06
2023-05-13T21:28:25.264Z,71.87
2023-05-13T21:30:57.587Z,72.01
2023-05-13T21:33:30.417Z,72.28
2023-05-13T21:36:02.758Z,73.13
2023-05-13T21:38:34.732Z,74.25
2023-05-13T21:41:07.667Z,74.02
2023-05-13T21:43:40.326Z,73.56
2023-05-13T21:46:14.180Z,74.00
2023-05-13T21:48:48.400Z,74.10
2023-05-13T21:51:21.125Z,75.28
2023-05-13T21:53:53.482Z,75.70
2023-05-13T21:56:25.868Z,74.84
2023-05-13T21:58:58.122Z,74.62
2023-05-13T22:01:30.410Z,75.44
2023-05-13T22:04:02.728Z,74.56
2023-05-13T22:06:35.037Z,74.51
2023-05-13T22:09:08.019Z,74.80
2023-05-13T22:11:40.257Z,75.73
2023-05-13T22:14:13.198Z,76.13
2023-05-13T22:16:51.894Z,75.92
2023-05-13T22:19:29.320Z,72.81
2023-05-13T22:22:01.652Z,74.82
2023-05-13T22:24:33.943Z,75.98
2023-05-13T22:27:07.016Z,75.27
2023-05-13T22:29:41.437Z,75.49
2023-05-13T22:32:13.978Z,76.49
2023-05-13T22:34:46.632Z,77.26
2023-05-13T22:37:19.133Z,77.24
2023-05-13T22:39:51.524Z,77.46
2023-05-13T22:42:23.878Z,77.06
2023-05-13T22:44:56.338Z,76.81
2023-05-13T22:47:28.706Z,77.17
2023-05-13T22:50:01.083Z,76.46
2023-05-13T22:52:33.964Z,76.57
2023-05-13T22:55:06.914Z,77.04
2023-05-13T22:57:40.688Z,76.99
2023-05-13T23:00:18.298Z,77.19
2023-05-13T23:02:50.767Z,77.61
2023-05-13T23:05:23.265Z,77.27
2023-05-13T23:07:55.741Z,78.12
2023-05-13T23:10:28.116Z,78.66
2023-05-13T23:13:00.625Z,78.40
2023-05-13T23:15:32.858Z,78.87
2023-05-13T23:18:05.349Z,78.59
2023-05-13T23:20:38.368Z,78.36
2023-05-13T23:23:10.742Z,78.46
2023-05-13T23:25:45.825Z,78.30
2023-05-13T23:28:21.079Z,78.71
2023-05-13T23:30:58.227Z,78.76
2023-05-13T23:33:30.529Z,79.06
2023-05-13T23:36:03.036Z,79.29
2023-05-13T23:38:35.883Z,79.48
2023-05-13T23:41:10.990Z,79.16
2023-05-13T23:43:43.632Z,79.68
2023-05-13T23:46:19.463Z,79.95
2023-05-13T23:48:54.913Z,79.85
2023-05-13T23:51:27.332Z,79.18
2023-05-13T23:54:00.098Z,79.83
2023-05-13T23:56:32.384Z,80.04
2023-05-13T23:59:04.613Z,81.54
